createdAt,value
2022-09-07T04:19:57.201Z,20.25
2022-09-07T04:23:00.277Z,18.60
2022-09-07T04:26:02.851Z,17.60
2022-09-07T04:29:06.887Z,17.65
2022-09-07T04:32:15.698Z,15.27
2022-09-07T04:35:19.045Z,14.77
2022-09-07T04:38:21.786Z,14.27
2022-09-07T04:41:24.568Z,14.05
2022-09-07T04:44:27.229Z,13.30
2022-09-07T04:47:32.873Z,14.13
2022-09-07T04:50:35.506Z,13.20
2022-09-07T04:53:38.597Z,12.90
2022-09-07T04:56:41.043Z,12.88
2022-09-07T04:59:44.065Z,12.80
2022-09-07T05:02:46.614Z,13.65
2022-09-07T05:05:49.512Z,12.20
2022-09-07T05:08:53.741Z,12.07
2022-09-07T05:11:56.606Z,12.45
2022-09-07T05:14:59.067Z,11.45
2022-09-07T05:18:01.921Z,10.88
2022-09-07T05:21:16.066Z,11.12
2022-09-07T05:24:18.978Z,10.70
2022-09-07T05:27:24.194Z,10.82
2022-09-07T05:37:14.652Z,10.52
2022-09-07T05:40:17.765Z,10.38
2022-09-07T05:43:22.832Z,10.30
2022-09-07T05:46:27.966Z,9.48
2022-09-07T05:49:30.889Z,9.85
2022-09-07T05:52:34.024Z,9.63
2022-09-07T05:55:36.801Z,9.45
2022-09-07T05:58:41.852Z,9.90
2022-09-07T06:01:47.505Z,9.63
2022-09-07T06:04:50.884Z,9.52
2022-09-07T06:07:53.506Z,9.30
2022-09-07T06:10:58.491Z,9.13
2022-09-07T06:14:01.110Z,9.70
2022-09-07T06:17:04.191Z,9.52
2022-09-07T06:20:07.619Z,9.05
2022-09-07T06:23:14.005Z,9.13
2022-09-07T06:26:17.855Z,8.63
2022-09-07T06:29:20.738Z,8.80
2022-09-07T06:35:58.753Z,8.50
2022-09-07T06:39:01.780Z,8.82
2022-09-07T06:42:04.584Z,8.13
2022-09-07T06:45:07.583Z,8.43
2022-09-07T06:48:10.363Z,7.93
2022-09-07T06:51:19.104Z,8.80
2022-09-07T06:57:44.447Z,8.35
2022-09-07T07:00:47.762Z,8.57
2022-09-07T07:03:51.593Z,9.02
2022-09-07T07:06:54.493Z,9.70
2022-09-07T07:09:57.180Z,8.48
2022-09-07T07:13:00.082Z,8.07
2022-09-07T07:16:09.884Z,8.27
2022-09-07T07:19:12.932Z,8.05
2022-09-07T07:25:38.422Z,8.02
2022-09-07T07:29:04.758Z,7.82
2022-09-07T07:32:07.661Z,7.43
2022-09-07T07:35:14.284Z,7.72
2022-09-07T07:42:12.338Z,7.80
2022-09-07T07:48:38.025Z,7.10
2022-09-07T07:58:47.391Z,7.25
2022-09-07T08:01:50.186Z,9.05
2022-09-07T08:04:53.072Z,9.02
2022-09-07T08:23:19.435Z,6.97
2022-09-07T08:27:02.415Z,6.78
2022-09-07T09:16:43.060Z,5.55
2022-09-07T09:27:11.081Z,5.47
2022-09-07T09:30:35.083Z,6.07
2022-09-07T09:37:45.443Z,5.80
2022-09-07T09:40:58.170Z,5.85
2022-09-07T09:44:00.715Z,5.97
2022-09-07T09:54:42.094Z,5.87
2022-09-07T10:09:02.269Z,6.20
2022-09-07T10:16:03.770Z,6.72
2022-09-07T10:19:21.229Z,6.28
2022-09-07T10:22:35.708Z,6.40
2022-09-07T10:25:50.653Z,6.78
2022-09-07T10:29:19.802Z,6.30
2022-09-07T10:32:35.949Z,6.47
2022-09-07T10:35:56.963Z,6.12
2022-09-07T10:39:18.300Z,6.30
2022-09-07T10:42:38.959Z,5.93
2022-09-07T10:45:53.723Z,5.55
2022-09-07T10:48:59.264Z,6.22
2022-09-07T11:07:15.658Z,6.28
2022-09-07T11:10:37.450Z,7.12
2022-09-07T11:14:08.977Z,6.50
2022-09-07T11:56:11.660Z,9.85
2022-09-07T12:03:25.366Z,10.02
2022-09-07T12:06:53.387Z,10.02
2022-09-07T12:10:26.063Z,10.70
2022-09-07T12:14:02.861Z,10.50
2022-09-07T12:17:37.985Z,12.32
2022-09-07T12:21:03.448Z,12.18
2022-09-07T12:24:26.123Z,11.88
2022-09-07T12:27:28.810Z,13.62
2022-09-07T12:30:40.249Z,13.45
2022-09-07T12:33:43.773Z,14.25
2022-09-07T12:36:49.821Z,14.87
2022-09-07T12:40:29.801Z,15.70
2022-09-07T12:43:46.710Z,16.50
2022-09-07T12:50:37.056Z,15.98
2022-09-07T12:54:00.830Z,15.45
2022-09-07T12:57:29.814Z,15.95
2022-09-07T13:04:35.821Z,17.00
2022-09-07T13:11:33.000Z,16.92
2022-09-07T13:14:58.402Z,16.75
2022-09-07T13:18:02.631Z,17.37
2022-09-07T13:21:08.154Z,16.75
2022-09-07T13:28:17.695Z,16.92
2022-09-07T13:32:05.059Z,17.35
2022-09-07T13:35:24.961Z,16.25
2022-09-07T13:38:29.079Z,16.67
2022-09-07T13:41:42.455Z,16.62
2022-09-07T13:44:54.414Z,14.93
2022-09-07T13:48:14.584Z,14.93
2022-09-07T13:51:50.309Z,15.07
2022-09-07T13:55:25.634Z,14.18
2022-09-07T13:58:37.937Z,14.00
2022-09-07T14:01:46.443Z,14.27
2022-09-07T14:23:41.624Z,14.20
2022-09-07T14:26:48.875Z,13.15
2022-09-07T14:29:52.059Z,12.63
2022-09-07T14:33:04.696Z,12.95
2022-09-07T14:36:29.543Z,12.68
2022-09-07T14:39:38.080Z,13.43
